createdAt,value
2022-12-31T00:01:42.080Z,163.68
2022-12-31T00:04:11.393Z,178.13
2022-12-31T00:06:40.865Z,184.70
2022-12-31T00:09:11.802Z,202.45
2022-12-31T00:11:41.560Z,207.85
2022-12-31T00:14:11.384Z,231.18
2022-12-31T00:16:43.229Z,245.52
2022-12-31T00:19:13.726Z,214.93
2022-12-31T00:21:44.806Z,233.10
2022-12-31T00:24:14.323Z,193.15
2022-12-31T00:26:43.664Z,202.70
2022-12-31T00:29:13.276Z,184.25
2022-12-31T00:31:43.260Z,189.80
2022-12-31T00:34:12.900Z,211.40
2022-12-31T00:36:43.807Z,209.90
2022-12-31T00:39:13.600Z,224.27
2022-12-31T00:41:44.964Z,215.30
2022-12-31T00:44:15.095Z,193.27
2022-12-31T00:49:13.196Z,181.65
2022-12-31T00:51:42.789Z,187.07
2022-12-31T00:54:12.203Z,179.98
2022-12-31T00:56:41.899Z,184.30
2022-12-31T00:59:11.687Z,202.73
2022-12-31T01:01:45.267Z,215.50
2022-12-31T01:04:24.137Z,213.02
2022-12-31T01:06:59.605Z,210.70
2022-12-31T01:09:34.422Z,202.77
2022-12-31T01:12:09.089Z,200.65
2022-12-31T01:17:10.784Z,192.95
2022-12-31T01:19:40.592Z,201.45
2022-12-31T01:22:10.651Z,182.73
2022-12-31T01:24:40.864Z,195.20
2022-12-31T01:27:11.178Z,187.00
2022-12-31T01:29:41.333Z,188.57
2022-12-31T01:32:11.145Z,205.32
2022-12-31T01:34:41.416Z,221.70
2022-12-31T01:37:11.411Z,202.50
2022-12-31T01:39:41.107Z,204.68
2022-12-31T01:42:14.095Z,198.65
2022-12-31T01:44:43.934Z,213.50
2022-12-31T01:47:19.630Z,229.23
2022-12-31T01:49:55.041Z,224.73
2022-12-31T01:52:32.118Z,215.73
2022-12-31T01:55:08.219Z,205.05
2022-12-31T01:57:40.234Z,215.93
2022-12-31T02:00:11.939Z,212.88
2022-12-31T02:02:42.246Z,208.50
2022-12-31T02:05:44.511Z,220.35
2022-12-31T02:08:15.096Z,196.20
2022-12-31T02:10:45.580Z,213.45
2022-12-31T02:13:17.160Z,215.68
2022-12-31T02:16:08.782Z,237.65
2022-12-31T02:19:09.040Z,238.57
2022-12-31T02:21:59.977Z,221.60
2022-12-31T02:24:52.552Z,247.98
2022-12-31T02:27:31.697Z,241.85
2022-12-31T02:30:05.003Z,255.63
2022-12-31T02:33:02.890Z,252.95
2022-12-31T02:35:44.506Z,264.63
2022-12-31T02:38:21.070Z,251.85
2022-12-31T02:40:52.078Z,232.68
2022-12-31T02:43:22.678Z,221.32
2022-12-31T02:46:23.359Z,218.52
2022-12-31T02:49:11.848Z,210.63
2022-12-31T02:51:53.451Z,181.48
2022-12-31T02:54:42.406Z,204.43
2022-12-31T02:57:15.231Z,182.88
2022-12-31T03:00:18.933Z,201.35
2022-12-31T03:02:51.982Z,226.73
2022-12-31T03:05:26.463Z,222.27
2022-12-31T03:07:57.888Z,224.85
2022-12-31T03:10:29.059Z,217.93
2022-12-31T03:13:00.378Z,216.30
2022-12-31T03:15:33.610Z,214.57
2022-12-31T03:18:06.959Z,220.55
2022-12-31T03:21:07.478Z,219.35
2022-12-31T03:23:41.147Z,221.05
2022-12-31T03:26:14.212Z,227.77
2022-12-31T03:28:49.093Z,229.95
2022-12-31T03:31:19.670Z,212.45
2022-12-31T03:33:49.665Z,219.52
2022-12-31T03:36:19.910Z,193.85
2022-12-31T03:38:52.829Z,194.25
2022-12-31T03:41:22.947Z,187.32
2022-12-31T03:43:52.879Z,195.80
2022-12-31T03:46:23.360Z,210.57
2022-12-31T03:48:53.686Z,225.48
2022-12-31T03:51:23.532Z,181.77
2022-12-31T03:53:53.673Z,215.88
2022-12-31T03:56:23.726Z,194.85
2022-12-31T03:58:54.502Z,198.07
2022-12-31T04:01:25.689Z,199.25
2022-12-31T04:03:56.064Z,159.98
2022-12-31T04:06:26.158Z,154.23
2022-12-31T04:08:56.221Z,186.30
2022-12-31T04:11:26.137Z,178.05
2022-12-31T04:13:56.061Z,157.60
2022-12-31T04:16:26.644Z,150.73
2022-12-31T04:18:56.662Z,124.00
2022-12-31T04:21:33.071Z,125.07
2022-12-31T04:24:05.422Z,125.63
2022-12-31T04:26:36.774Z,108.07
2022-12-31T04:29:08.137Z,103.40
2022-12-31T04:31:38.453Z,110.85
2022-12-31T04:34:08.799Z,120.15
2022-12-31T04:36:38.634Z,119.63
2022-12-31T04:39:08.955Z,124.75
2022-12-31T04:41:39.165Z,140.00
2022-12-31T04:44:09.597Z,121.55
2022-12-31T04:46:40.128Z,113.60
2022-12-31T04:49:11.403Z,111.90
2022-12-31T04:51:41.515Z,103.22
2022-12-31T04:54:11.770Z,119.65
2022-12-31T04:56:41.819Z,110.38
2022-12-31T04:59:13.410Z,96.22
2022-12-31T05:01:43.705Z,83.03
2022-12-31T05:04:14.143Z,72.75
2022-12-31T05:06:44.324Z,83.30
2022-12-31T05:09:14.830Z,81.00
2022-12-31T05:11:44.855Z,107.50
2022-12-31T05:14:14.891Z,85.68
2022-12-31T05:16:44.727Z,66.07
2022-12-31T05:19:15.263Z,81.78
2022-12-31T05:22:05.447Z,79.78
2022-12-31T05:24:35.724Z,73.82
2022-12-31T05:27:06.501Z,76.90
2022-12-31T05:29:36.651Z,73.93
2022-12-31T05:32:06.312Z,93.95
2022-12-31T05:34:35.989Z,66.90
2022-12-31T05:37:05.537Z,72.25
2022-12-31T05:39:35.062Z,56.90
2022-12-31T05:42:04.802Z,60.40
2022-12-31T05:44:34.033Z,64.40
2022-12-31T05:47:03.581Z,50.78
2022-12-31T05:49:33.176Z,56.80
2022-12-31T05:52:02.670Z,61.40
2022-12-31T05:54:32.032Z,62.25
2022-12-31T05:57:01.930Z,53.92
2022-12-31T05:59:31.894Z,51.65
2022-12-31T06:02:01.883Z,53.38
2022-12-31T06:04:31.792Z,51.90
2022-12-31T06:07:01.117Z,59.30
2022-12-31T06:09:30.632Z,60.20
2022-12-31T06:12:00.053Z,54.42
2022-12-31T06:14:29.753Z,50.70
2022-12-31T06:16:59.357Z,47.20
2022-12-31T06:19:29.326Z,48.65
2022-12-31T06:21:58.755Z,47.80
2022-12-31T06:24:28.128Z,47.95
2022-12-31T06:26:57.756Z,52.03
2022-12-31T06:29:27.284Z,53.35
2022-12-31T06:31:56.837Z,50.80
2022-12-31T06:34:26.402Z,51.22
2022-12-31T06:36:55.731Z,53.90
2022-12-31T06:39:25.199Z,47.75
2022-12-31T06:41:54.661Z,43.70
2022-12-31T06:44:24.241Z,46.00
2022-12-31T06:46:53.691Z,38.40
2022-12-31T06:49:23.378Z,38.88
2022-12-31T06:51:52.630Z,41.22
2022-12-31T06:54:22.132Z,37.75
2022-12-31T06:56:52.387Z,42.13
2022-12-31T06:59:30.869Z,36.35
2022-12-31T07:02:07.657Z,40.08
2022-12-31T07:04:45.878Z,39.72
2022-12-31T07:07:22.877Z,32.90
2022-12-31T07:10:13.284Z,40.38
2022-12-31T07:13:20.550Z,42.28
2022-12-31T07:16:19.292Z,31.42
2022-12-31T07:18:49.098Z,37.55
2022-12-31T07:21:26.078Z,41.45
2022-12-31T07:23:55.826Z,51.28
2022-12-31T07:26:57.218Z,46.35
2022-12-31T07:29:43.633Z,45.15
2022-12-31T07:32:37.104Z,48.58
2022-12-31T07:35:32.916Z,48.08
2022-12-31T07:38:16.682Z,41.42
2022-12-31T07:41:07.299Z,35.50
2022-12-31T07:44:17.038Z,39.67
2022-12-31T07:46:58.782Z,32.78
2022-12-31T07:49:30.725Z,41.05
2022-12-31T07:52:00.908Z,36.90
2022-12-31T07:54:30.382Z,35.80
2022-12-31T07:56:59.944Z,48.75
2022-12-31T07:59:59.302Z,48.35
2022-12-31T08:02:37.587Z,60.10
2022-12-31T08:05:22.202Z,56.03
2022-12-31T08:08:18.509Z,41.22
2022-12-31T08:11:17.795Z,45.55
2022-12-31T08:13:48.436Z,54.55
2022-12-31T08:16:18.343Z,37.47
2022-12-31T08:18:48.463Z,35.53
2022-12-31T08:22:07.169Z,52.97
2022-12-31T08:24:44.005Z,52.72
2022-12-31T08:27:35.381Z,53.10
2022-12-31T08:30:10.795Z,51.97
2022-12-31T08:33:04.740Z,34.10
2022-12-31T08:36:07.247Z,32.42
2022-12-31T08:38:58.312Z,35.10
2022-12-31T08:41:54.145Z,48.13
2022-12-31T08:44:36.689Z,30.92
2022-12-31T08:47:15.114Z,44.95
2022-12-31T08:49:45.028Z,34.25
2022-12-31T08:52:24.999Z,31.10
2022-12-31T08:54:55.246Z,32.58
2022-12-31T08:57:47.599Z,28.05
2022-12-31T09:00:19.971Z,29.75
2022-12-31T09:02:55.465Z,37.00
2022-12-31T09:05:34.064Z,28.63
2022-12-31T09:08:24.723Z,29.30
2022-12-31T09:11:05.262Z,26.45
2022-12-31T09:14:06.284Z,34.58
2022-12-31T09:17:30.844Z,33.63
2022-12-31T09:20:00.745Z,26.38
2022-12-31T09:22:30.799Z,32.40
2022-12-31T09:25:01.008Z,26.40
2022-12-31T09:27:39.969Z,25.75
2022-12-31T09:30:14.981Z,32.50
2022-12-31T09:33:08.716Z,32.25
2022-12-31T09:35:46.324Z,35.53
2022-12-31T09:38:22.555Z,35.80
2022-12-31T09:41:17.971Z,29.92
2022-12-31T09:44:10.764Z,34.03
2022-12-31T09:47:33.275Z,30.42
2022-12-31T09:51:00.620Z,26.90
2022-12-31T09:53:35.994Z,27.85
2022-12-31T09:56:32.957Z,30.45
2022-12-31T09:59:23.839Z,36.88
2022-12-31T10:02:17.472Z,35.78
2022-12-31T10:04:54.630Z,30.60
2022-12-31T10:07:27.077Z,30.85
2022-12-31T10:10:23.376Z,33.20
2022-12-31T10:13:22.169Z,30.15
2022-12-31T10:16:16.349Z,24.35
2022-12-31T10:19:10.429Z,29.80
2022-12-31T10:21:55.023Z,31.05
2022-12-31T10:24:44.014Z,39.13
2022-12-31T10:27:35.202Z,25.20
2022-12-31T10:30:24.154Z,34.45
2022-12-31T10:33:08.954Z,21.42
2022-12-31T10:35:45.044Z,31.63
2022-12-31T10:38:32.556Z,47.33
2022-12-31T10:41:38.809Z,37.92
2022-12-31T10:44:36.024Z,32.50
2022-12-31T10:47:19.950Z,30.83
2022-12-31T10:50:19.443Z,26.85
2022-12-31T10:53:19.195Z,32.25
2022-12-31T10:56:25.158Z,30.88
2022-12-31T10:58:59.613Z,32.33
2022-12-31T11:01:52.068Z,39.35
2022-12-31T11:04:50.705Z,41.73
2022-12-31T11:07:41.703Z,29.48
2022-12-31T11:10:22.663Z,29.48
2022-12-31T11:13:00.327Z,30.25
2022-12-31T11:16:07.012Z,29.65
2022-12-31T11:19:17.745Z,48.65
2022-12-31T11:21:55.765Z,34.38
2022-12-31T11:24:49.314Z,38.35
2022-12-31T11:27:52.089Z,38.95
2022-12-31T11:30:28.874Z,47.00
2022-12-31T11:33:46.882Z,38.78
2022-12-31T11:36:45.394Z,48.78
2022-12-31T11:39:32.851Z,38.13
2022-12-31T11:42:14.027Z,39.33
2022-12-31T11:45:14.106Z,41.17
2022-12-31T11:51:33.169Z,32.55
2022-12-31T11:54:11.468Z,50.15
2022-12-31T11:56:45.685Z,49.17
2022-12-31T11:59:19.631Z,71.68
2022-12-31T12:02:29.114Z,101.68
2022-12-31T12:05:08.488Z,66.80
2022-12-31T12:07:40.405Z,71.43
2022-12-31T12:10:38.913Z,86.15
2022-12-31T12:13:22.452Z,90.57
2022-12-31T12:16:00.982Z,110.03
2022-12-31T12:18:49.332Z,127.03
2022-12-31T12:21:22.750Z,130.80
2022-12-31T12:24:01.483Z,138.88
2022-12-31T12:26:42.458Z,145.25
2022-12-31T12:29:24.541Z,149.55
2022-12-31T12:32:07.623Z,145.52
2022-12-31T12:34:44.465Z,132.98
2022-12-31T12:37:34.292Z,221.23
2022-12-31T12:40:07.317Z,172.48
2022-12-31T12:42:37.702Z,120.38
2022-12-31T12:45:15.659Z,138.88
2022-12-31T12:47:47.374Z,169.15
2022-12-31T12:50:23.088Z,137.37
2022-12-31T12:53:25.982Z,167.18
2022-12-31T12:56:08.900Z,189.88
2022-12-31T12:58:58.025Z,149.30
2022-12-31T13:01:31.598Z,163.98
2022-12-31T13:04:36.179Z,135.55
2022-12-31T13:07:19.319Z,142.57
2022-12-31T13:10:15.434Z,147.67
2022-12-31T13:13:25.951Z,159.13
2022-12-31T13:16:33.611Z,225.23
2022-12-31T13:19:32.726Z,223.98
2022-12-31T13:22:36.154Z,191.32
2022-12-31T13:25:21.862Z,168.57
2022-12-31T13:27:55.588Z,163.38
2022-12-31T13:30:37.537Z,158.60
2022-12-31T13:33:29.756Z,152.93
2022-12-31T13:36:08.922Z,134.88
2022-12-31T13:38:45.157Z,150.18
2022-12-31T13:41:39.493Z,153.60
2022-12-31T13:44:38.909Z,166.00
2022-12-31T13:47:16.327Z,166.38
2022-12-31T13:49:51.462Z,152.95
2022-12-31T13:52:36.383Z,146.70
2022-12-31T13:55:20.934Z,141.93
2022-12-31T13:57:55.342Z,152.13
2022-12-31T14:00:36.560Z,149.93
2022-12-31T14:03:14.747Z,131.13
2022-12-31T14:06:04.685Z,146.70
2022-12-31T14:08:34.012Z,136.18
2022-12-31T14:11:19.695Z,161.27
2022-12-31T14:14:06.179Z,138.98
2022-12-31T14:16:57.308Z,139.95
2022-12-31T14:19:41.441Z,143.80
2022-12-31T14:22:35.498Z,129.77
2022-12-31T14:25:12.066Z,130.43
2022-12-31T14:27:44.624Z,172.35
2022-12-31T14:30:22.835Z,141.13
2022-12-31T14:33:13.306Z,146.93
2022-12-31T14:35:54.509Z,151.18
2022-12-31T14:38:58.091Z,150.98
2022-12-31T14:41:57.025Z,146.38
2022-12-31T14:45:00.121Z,148.70
2022-12-31T14:47:55.664Z,169.50
2022-12-31T14:50:30.862Z,157.98
2022-12-31T14:53:09.589Z,143.18
2022-12-31T14:55:41.760Z,133.63
2022-12-31T14:58:31.886Z,169.18
2022-12-31T15:01:02.161Z,167.73
2022-12-31T15:03:41.225Z,144.10
2022-12-31T15:09:19.400Z,174.15
2022-12-31T15:12:06.468Z,172.73
2022-12-31T15:15:05.675Z,167.43
2022-12-31T15:17:41.210Z,188.23
2022-12-31T15:20:21.710Z,187.32
2022-12-31T15:22:54.455Z,174.73
2022-12-31T15:25:40.047Z,181.07
2022-12-31T15:28:31.968Z,176.15
2022-12-31T15:31:21.116Z,168.48
2022-12-31T15:34:03.340Z,172.02
2022-12-31T15:36:34.130Z,182.60
2022-12-31T15:39:12.322Z,164.98
2022-12-31T15:42:18.749Z,154.35
2022-12-31T15:44:51.029Z,169.05
2022-12-31T15:47:38.428Z,159.85
2022-12-31T15:50:16.363Z,176.57
2022-12-31T15:52:57.647Z,164.90
2022-12-31T15:55:42.587Z,154.52
2022-12-31T15:58:17.025Z,142.55
2022-12-31T16:01:11.217Z,162.27
2022-12-31T16:03:46.305Z,185.30
2022-12-31T16:06:18.084Z,184.75
2022-12-31T16:08:50.991Z,184.95
2022-12-31T16:11:20.997Z,164.07
2022-12-31T16:13:53.699Z,165.60
2022-12-31T16:18:55.810Z,147.00
2022-12-31T16:21:40.088Z,174.80
2022-12-31T16:24:37.444Z,155.18
2022-12-31T16:27:20.075Z,162.38
2022-12-31T16:29:56.006Z,166.10
2022-12-31T16:32:26.507Z,185.18
2022-12-31T16:34:55.884Z,170.98
2022-12-31T16:37:25.267Z,168.75
2022-12-31T16:39:57.602Z,164.85
2022-12-31T16:42:31.597Z,175.30
2022-12-31T16:45:20.924Z,174.10
2022-12-31T16:47:50.375Z,167.73
2022-12-31T16:50:22.553Z,166.23
2022-12-31T16:52:59.012Z,145.20
2022-12-31T16:55:31.705Z,154.77
2022-12-31T16:58:22.783Z,162.38
2022-12-31T17:00:53.682Z,157.82
2022-12-31T17:03:28.668Z,150.77
2022-12-31T17:06:16.346Z,161.13
2022-12-31T17:08:58.852Z,149.40
2022-12-31T17:11:54.547Z,168.20
2022-12-31T17:14:29.957Z,144.75
2022-12-31T17:17:09.881Z,138.93
2022-12-31T17:19:56.823Z,135.57
2022-12-31T17:22:36.768Z,136.50
2022-12-31T17:25:16.971Z,137.30
2022-12-31T17:27:56.002Z,132.18
2022-12-31T17:30:32.526Z,144.30
2022-12-31T17:33:02.858Z,134.35
2022-12-31T17:35:35.229Z,134.05
2022-12-31T17:38:19.698Z,131.15
2022-12-31T17:40:51.981Z,129.68
2022-12-31T17:45:53.648Z,115.93
2022-12-31T17:48:28.676Z,130.50
2022-12-31T17:51:02.191Z,126.35
2022-12-31T17:53:31.870Z,129.20
2022-12-31T17:56:07.372Z,129.30
2022-12-31T17:58:46.307Z,128.75
2022-12-31T18:01:18.620Z,122.47
2022-12-31T18:03:49.111Z,122.18
2022-12-31T18:06:20.348Z,123.18
2022-12-31T18:08:50.500Z,122.13
2022-12-31T18:11:25.206Z,114.70
2022-12-31T18:13:55.990Z,121.82
2022-12-31T18:16:25.505Z,132.15
2022-12-31T18:18:59.443Z,139.65
2022-12-31T18:21:35.259Z,143.80
2022-12-31T18:24:06.096Z,158.10
2022-12-31T18:26:35.664Z,176.90
2022-12-31T18:29:18.635Z,177.07
2022-12-31T18:31:50.913Z,156.13
2022-12-31T18:34:20.555Z,149.82
2022-12-31T18:36:49.697Z,150.40
2022-12-31T18:39:18.910Z,153.95
2022-12-31T18:41:52.739Z,131.57
2022-12-31T18:44:21.908Z,120.63
2022-12-31T18:46:51.592Z,113.45
2022-12-31T18:51:55.239Z,115.95
2022-12-31T18:54:24.579Z,115.83
2022-12-31T18:56:57.053Z,112.63
2022-12-31T18:59:26.763Z,102.03
2022-12-31T19:01:56.455Z,117.28
2022-12-31T19:04:28.301Z,121.75
2022-12-31T19:06:58.323Z,125.90
2022-12-31T19:12:17.154Z,370.73
2022-12-31T19:14:46.900Z,303.55
2022-12-31T19:17:15.948Z,219.48
2022-12-31T19:19:45.178Z,178.13
2022-12-31T19:22:17.371Z,173.43
2022-12-31T19:24:47.016Z,168.38
2022-12-31T19:27:16.290Z,161.70
2022-12-31T19:29:45.508Z,165.52
2022-12-31T19:32:15.062Z,158.43
2022-12-31T19:34:44.521Z,164.93
2022-12-31T19:37:17.260Z,167.18
2022-12-31T19:39:46.600Z,170.20
2022-12-31T19:42:17.370Z,168.13
2022-12-31T19:44:46.514Z,165.25
2022-12-31T19:47:15.595Z,183.07
2022-12-31T19:49:45.339Z,175.52
2022-12-31T19:52:15.131Z,175.40
2022-12-31T19:54:44.201Z,170.23
2022-12-31T19:57:13.692Z,149.15
2022-12-31T19:59:43.072Z,181.27
2022-12-31T20:02:12.418Z,162.68
2022-12-31T20:04:41.751Z,178.25
2022-12-31T20:07:11.251Z,197.50
2022-12-31T20:09:40.506Z,195.85
2022-12-31T20:12:09.864Z,185.98
2022-12-31T20:14:38.943Z,183.38
2022-12-31T20:17:08.151Z,171.05
2022-12-31T20:19:38.114Z,178.55
2022-12-31T20:22:07.884Z,180.40
2022-12-31T20:24:37.290Z,187.13
2022-12-31T20:27:12.192Z,207.60
2022-12-31T20:29:44.750Z,179.13
2022-12-31T20:32:13.876Z,180.57
2022-12-31T20:34:43.192Z,185.98
2022-12-31T20:37:12.709Z,197.75
2022-12-31T20:39:41.968Z,215.30
2022-12-31T20:42:11.055Z,230.25
2022-12-31T20:44:40.187Z,195.60
2022-12-31T20:47:09.791Z,196.07
2022-12-31T20:50:09.682Z,253.63
2022-12-31T20:52:28.451Z,338.65
2022-12-31T20:54:57.531Z,320.70
2022-12-31T20:57:33.180Z,261.42
2022-12-31T21:00:03.824Z,196.18
2022-12-31T21:02:41.658Z,179.95
2022-12-31T21:05:12.884Z,179.57
2022-12-31T21:07:42.226Z,169.57
2022-12-31T21:10:11.321Z,161.20
2022-12-31T21:12:49.091Z,179.60
2022-12-31T21:15:18.450Z,159.52
2022-12-31T21:17:48.392Z,181.18
2022-12-31T21:20:18.012Z,166.48
2022-12-31T21:22:47.091Z,165.00
2022-12-31T21:25:16.535Z,169.50
2022-12-31T21:27:45.428Z,160.07
2022-12-31T21:30:18.762Z,178.85
2022-12-31T21:32:49.781Z,178.55
2022-12-31T21:38:09.337Z,175.90
2022-12-31T21:40:38.787Z,172.32
2022-12-31T21:43:08.243Z,194.82
2022-12-31T21:45:37.571Z,190.93
2022-12-31T21:48:24.303Z,184.48
2022-12-31T21:51:05.567Z,183.40
2022-12-31T21:53:37.083Z,172.43
2022-12-31T21:56:10.437Z,171.27
2022-12-31T21:58:42.025Z,193.20
2022-12-31T22:01:39.985Z,177.70
2022-12-31T22:04:28.157Z,180.52
2022-12-31T22:06:58.698Z,208.18
2022-12-31T22:09:28.249Z,253.45
2022-12-31T22:11:57.272Z,249.73
2022-12-31T22:14:26.697Z,267.08
2022-12-31T22:16:55.941Z,280.20
2022-12-31T22:19:25.656Z,283.75
2022-12-31T22:21:55.098Z,253.10
2022-12-31T22:24:24.387Z,231.75
2022-12-31T22:26:56.628Z,215.60
2022-12-31T22:29:26.909Z,181.25
2022-12-31T22:32:01.017Z,191.38
2022-12-31T22:34:30.688Z,189.98
2022-12-31T22:37:08.911Z,181.80
2022-12-31T22:39:51.970Z,192.35
2022-12-31T22:42:21.190Z,194.80
2022-12-31T22:44:50.711Z,195.20
2022-12-31T22:47:19.547Z,188.43
2022-12-31T22:49:48.980Z,185.48
2022-12-31T22:52:17.859Z,182.20
2022-12-31T22:54:47.393Z,214.48
2022-12-31T22:57:20.217Z,220.90
2022-12-31T22:59:50.085Z,197.85
2022-12-31T23:02:19.366Z,194.82
2022-12-31T23:04:48.467Z,178.32
2022-12-31T23:07:18.014Z,176.27
2022-12-31T23:10:05.532Z,170.57
2022-12-31T23:12:34.718Z,175.88
2022-12-31T23:15:22.362Z,166.73
2022-12-31T23:18:09.960Z,170.57
2022-12-31T23:20:58.153Z,184.25
2022-12-31T23:23:27.388Z,169.23
2022-12-31T23:26:03.078Z,173.27
2022-12-31T23:28:32.238Z,184.88
2022-12-31T23:31:06.786Z,181.70
2022-12-31T23:33:36.419Z,187.43
2022-12-31T23:36:07.672Z,214.13
2022-12-31T23:38:36.912Z,182.57
2022-12-31T23:41:17.803Z,187.05
2022-12-31T23:43:47.466Z,188.68
2022-12-31T23:46:18.340Z,188.43
2022-12-31T23:48:47.711Z,201.00
2022-12-31T23:51:16.869Z,207.73
2022-12-31T23:53:46.078Z,202.73
2022-12-31T23:56:23.759Z,194.93
2022-12-31T23:58:58.069Z,210.40
